Time;durP1;ratioP1;P1;durP2;ratioP2;P2;SDS_P1;SDS_P2;PMS_P1;PMS_P2;Temp;Humidity;BMP_temperature;BMP_pressure;BME280_temperature;BME280_humidity;BME280_pressure;Samples;Min_cycle;Max_cycle;Signal;HPM_P1;HPM_P2
2022/09/20 00:01:10;;;;;;;2.08;1.13;;;;;;;21.05;44.18;102012.63;4980441;28;20098;-64
2022/09/20 00:03:37;;;;;;;2.30;0.65;;;;;;;21.03;44.83;102014.66;4980384;28;20026;-64
2022/09/20 00:06:04;;;;;;;2.50;0.85;;;;;;;21.04;44.94;102013.66;4996056;28;20030;-65
2022/09/20 00:08:30;;;;;;;5.32;1.20;;;;;;;21.01;44.82;102010.41;4996386;28;20023;-64
2022/09/20 00:11:08;;;;;;;4.68;1.60;;;;;;;21.01;44.55;102013.13;4996294;28;20037;-65
2022/09/20 00:13:34;;;;;;;3.65;1.23;;;;;;;21.00;45.09;102004.09;4979986;28;20057;-64
2022/09/20 00:16:04;;;;;;;7.43;1.13;;;;;;;21.01;45.12;102008.53;4996055;28;20034;-65
2022/09/20 00:18:29;;;;;;;2.75;0.63;;;;;;;21.00;44.43;102005.97;4996201;28;20034;-64
2022/09/20 00:20:54;;;;;;;4.80;0.75;;;;;;;20.98;44.36;102006.16;4996400;28;20023;-64
2022/09/20 00:23:20;;;;;;;1.27;0.82;;;;;;;20.98;44.60;102011.59;4997588;28;20034;-65
2022/09/20 00:25:54;;;;;;;3.38;0.90;;;;;;;20.99;44.48;102015.19;4997103;28;20026;-65
2022/09/20 00:28:19;;;;;;;3.78;0.75;;;;;;;20.96;44.69;102010.91;4996689;28;20086;-65
2022/09/20 00:30:44;;;;;;;6.20;1.80;;;;;;;20.96;45.35;102010.06;4997197;28;20026;-65
2022/09/20 00:33:10;;;;;;;2.80;0.70;;;;;;;20.96;44.72;102013.66;4980149;28;20042;-64
2022/09/20 00:35:35;;;;;;;3.35;1.13;;;;;;;20.97;44.72;102009.88;4996178;28;20034;-65
2022/09/20 00:38:01;;;;;;;1.52;0.85;;;;;;;20.97;44.81;102015.34;4979758;28;20027;-64
2022/09/20 00:40:26;;;;;;;1.95;0.93;;;;;;;20.90;44.87;102006.13;4995756;28;20058;-64
2022/09/20 00:42:51;;;;;;;2.95;0.70;;;;;;;20.94;44.74;102010.22;4996791;28;20033;-65
2022/09/20 00:45:24;;;;;;;5.70;0.88;;;;;;;20.96;44.56;102005.47;4963657;28;20039;-64
2022/09/20 00:47:52;;;;;;;;;;;;;;;20.94;44.40;102015.66;4980225;28;20018;-64
2022/09/20 00:50:43;;;;;;;1.25;0.70;;;;;;;20.93;44.37;102019.44;4996306;28;19910;-64
2022/09/20 00:53:19;;;;;;;9.90;0.93;;;;;;;20.89;44.88;102016.19;4995618;28;20027;-64
2022/09/20 00:55:51;;;;;;;3.30;0.75;;;;;;;20.90;44.49;102017.03;4979159;28;20027;-64
2022/09/20 00:58:18;;;;;;;5.63;0.60;;;;;;;20.88;44.74;102009.00;4978602;28;20034;-64
2022/09/20 01:00:45;;;;;;;7.45;1.00;;;;;;;20.87;45.59;102011.91;4994953;28;20054;-64
2022/09/20 01:03:12;;;;;;;7.43;0.80;;;;;;;20.90;45.27;102011.59;4995674;28;20054;-65
2022/09/20 01:05:39;;;;;;;3.47;0.80;;;;;;;20.87;45.17;102003.75;4979330;28;20027;-64
2022/09/20 01:08:04;;;;;;;4.45;0.65;;;;;;;20.90;45.52;102006.13;4995055;28;20027;-64
2022/09/20 01:10:31;;;;;;;3.20;0.70;;;;;;;20.89;45.05;102004.41;4995890;28;20114;-64
2022/09/20 01:12:57;;;;;;;2.45;0.63;;;;;;;20.88;45.01;102006.28;4978738;28;20054;-64
2022/09/20 01:15:24;;;;;;;3.28;1.00;;;;;;;20.86;44.76;102004.75;4979213;28;20031;-64
2022/09/20 01:17:52;;;;;;;1.27;0.57;;;;;;;20.86;45.31;102004.75;4995672;28;20007;-65
2022/09/20 01:20:21;;;;;;;5.50;0.77;;;;;;;20.86;44.90;102000.16;4978962;28;20026;-65
2022/09/20 01:22:57;;;;;;;3.33;0.93;;;;;;;20.88;44.95;102008.19;4994719;28;20022;-64
2022/09/20 01:25:53;;;;;;;3.25;1.00;;;;;;;20.88;45.30;102010.91;4994332;28;20027;-65
2022/09/20 01:28:19;;;;;;;4.63;0.82;;;;;;;20.85;45.14;102008.53;4994778;28;20033;-64
2022/09/20 01:30:48;;;;;;;3.03;0.65;;;;;;;20.82;45.17;102003.41;4994677;28;20031;-66
2022/09/20 01:33:53;;;;;;;4.72;0.80;;;;;;;20.81;44.86;102007.13;4995207;28;20461;-64
2022/09/20 01:36:53;;;;;;;4.13;0.63;;;;;;;20.80;45.15;102016.31;4939518;29;20087;-65
2022/09/20 01:39:46;;;;;;;0.80;0.57;;;;;;;20.79;45.09;102020.06;4932259;29;20032;-64
2022/09/20 01:42:13;;;;;;;2.00;0.55;;;;;;;20.73;45.36;102009.84;4940368;29;20099;-63
2022/09/20 01:44:46;;;;;;;5.93;1.00;;;;;;;20.74;45.37;102008.84;4955676;29;20039;-64
2022/09/20 01:47:23;;;;;;;1.13;0.80;;;;;;;20.72;45.56;102008.97;4923338;29;20031;-65
2022/09/20 01:50:11;;;;;;;8.90;1.00;;;;;;;20.73;45.80;102012.56;4939049;29;20011;-63
2022/09/20 01:53:14;;;;;;;3.47;0.80;;;;;;;20.71;45.64;102001.84;4939698;29;20043;-64
2022/09/20 01:56:22;;;;;;;5.17;1.20;;;;;;;20.70;45.60;102002.84;4939175;29;20027;-64
2022/09/20 01:59:06;;;;;;;2.10;0.90;;;;;;;20.67;45.10;101997.75;4882115;29;20058;-64
2022/09/20 02:01:40;;;;;;;1.60;0.93;;;;;;;20.66;45.07;101995.19;4952830;29;20032;-64
2022/09/20 02:04:43;;;;;;;3.42;1.00;;;;;;;20.64;45.50;102000.78;4939112;29;20034;-63
2022/09/20 02:07:33;;;;;;;1.42;0.73;;;;;;;20.63;44.87;101998.25;4967491;28;20038;-64
2022/09/20 02:10:17;;;;;;;2.97;0.93;;;;;;;20.62;45.54;102013.72;4992681;28;20034;-64
2022/09/20 02:12:55;;;;;;;5.63;1.05;;;;;;;20.63;45.94;102017.31;4993355;28;20050;-64
2022/09/20 02:15:23;;;;;;;3.42;0.73;;;;;;;20.60;45.69;102009.47;4978334;28;20138;-64
2022/09/20 02:18:24;;;;;;;5.82;0.85;;;;;;;20.60;45.78;102007.56;4994792;28;20034;-64
2022/09/20 02:20:52;;;;;;;7.40;1.40;;;;;;;20.57;45.59;101998.91;4973794;28;20043;-64
2022/09/20 02:23:38;;;;;;;5.38;1.13;;;;;;;20.56;45.73;102005.38;4994704;28;20027;-65
2022/09/20 02:26:49;;;;;;;4.85;1.95;;;;;;;20.55;45.58;102003.66;4995089;28;20027;-64
2022/09/20 02:29:32;;;;;;;3.17;1.27;;;;;;;20.52;45.13;101995.84;4994035;28;20432;-64
2022/09/20 02:32:23;;;;;;;8.10;1.40;;;;;;;20.52;46.06;101995.84;4994769;28;20029;-63
2022/09/20 02:35:14;;;;;;;2.83;1.38;;;;;;;20.51;46.41;101996.84;4994351;28;20031;-64
2022/09/20 02:38:01;;;;;;;8.40;1.55;;;;;;;20.51;46.29;101997.69;4993820;28;20050;-64
2022/09/20 02:40:46;;;;;;;5.35;1.23;;;;;;;20.50;45.64;101995.97;4994005;28;20030;-64
2022/09/20 02:43:37;;;;;;;9.48;2.13;;;;;;;20.50;45.71;101998.72;4993454;28;20037;-64
2022/09/20 02:47:00;;;;;;;4.35;1.38;;;;;;;20.51;45.84;102002.28;4977321;28;20038;-65
2022/09/20 02:49:30;;;;;;;2.53;1.20;;;;;;;20.49;46.23;101993.44;4954022;29;20028;-66
2022/09/20 02:51:59;;;;;;;5.75;1.58;;;;;;;20.48;45.96;101989.88;4938947;29;20278;-63
2022/09/20 02:54:35;;;;;;;4.18;1.38;;;;;;;20.48;45.97;101991.72;4959133;28;20166;-66
2022/09/20 02:57:12;;;;;;;5.72;1.30;;;;;;;20.50;46.13;101993.25;4994841;28;20539;-67
2022/09/20 02:59:43;;;;;;;3.35;1.40;;;;;;;20.50;46.37;101987.81;4994407;28;20058;-67
2022/09/20 03:02:35;;;;;;;6.28;2.75;;;;;;;20.50;45.82;101987.81;4993830;28;20138;-65
2022/09/20 03:05:08;;;;;;;2.78;1.48;;;;;;;20.49;46.11;101985.28;4977641;28;20070;-65
2022/09/20 03:07:42;;;;;;;4.18;1.40;;;;;;;20.50;46.14;101993.25;4978123;28;20029;-63
2022/09/20 03:10:46;;;;;;;3.65;1.33;;;;;;;20.50;45.76;101986.97;4993486;28;20019;-63
2022/09/20 03:13:30;;;;;;;5.97;1.23;;;;;;;20.50;45.89;101992.41;4992171;28;20049;-64
2022/09/20 03:16:11;;;;;;;3.65;1.35;;;;;;;20.46;46.13;101981.00;4994282;28;20066;-65
2022/09/20 03:18:46;;;;;;;2.63;1.35;;;;;;;20.48;46.37;101992.59;4994070;28;20086;-65
2022/09/20 03:21:27;;;;;;;6.05;1.83;;;;;;;20.45;46.24;101990.19;4978623;28;20031;-66
2022/09/20 03:24:28;;;;;;;4.32;1.67;;;;;;;20.44;46.05;101987.63;4996531;28;20018;-65
2022/09/20 03:27:18;;;;;;;5.30;1.60;;;;;;;20.41;46.27;101993.41;4958058;29;20036;-65
2022/09/20 03:30:09;;;;;;;4.15;1.60;;;;;;;20.41;46.09;101987.97;4978452;28;20038;-65
2022/09/20 03:32:51;;;;;;;3.65;1.73;;;;;;;20.39;46.75;101987.25;4997087;28;20033;-65
2022/09/20 03:35:42;;;;;;;5.22;2.15;;;;;;;20.41;46.86;101994.25;4996937;28;20039;-66
2022/09/20 03:38:19;;;;;;;4.97;1.70;;;;;;;20.41;46.66;101996.13;4996581;28;20023;-66
2022/09/20 03:40:50;;;;;;;4.45;2.15;;;;;;;20.41;46.37;101994.25;4997300;28;20042;-65
2022/09/20 03:43:48;;;;;;;11.63;1.85;;;;;;;20.42;46.38;101990.53;4996230;28;20090;-65
2022/09/20 03:46:19;;;;;;;4.05;1.75;;;;;;;20.41;46.75;101998.88;4962167;28;20040;-66
2022/09/20 03:48:59;;;;;;;3.38;1.52;;;;;;;20.42;46.62;101995.97;4980699;28;20021;-66
2022/09/20 03:51:51;;;;;;;8.80;1.30;;;;;;;20.41;46.55;101998.88;4997659;28;20038;-65
2022/09/20 03:54:44;;;;;;;8.70;2.10;;;;;;;20.39;46.42;102000.88;4997410;28;20038;-65
2022/09/20 03:57:18;;;;;;;7.15;1.40;;;;;;;20.37;46.68;102002.91;4997463;28;20570;-66
2022/09/20 04:00:25;;;;;;;8.45;1.77;;;;;;;20.37;46.77;102008.34;4996202;28;20031;-65
2022/09/20 04:03:05;;;;;;;4.97;1.58;;;;;;;20.35;46.75;102010.41;4995427;28;20063;-65
2022/09/20 04:05:49;;;;;;;3.35;1.60;;;;;;;20.34;46.72;102009.53;4986257;28;20097;-65
2022/09/20 04:08:50;;;;;;;5.80;1.20;;;;;;;20.35;46.53;102010.41;4985920;28;20023;-65
2022/09/20 04:11:36;;;;;;;6.50;1.60;;;;;;;20.32;46.54;101996.06;4966174;28;20035;-65
2022/09/20 04:14:10;;;;;;;2.72;1.45;;;;;;;20.36;46.88;102012.09;4984391;28;20025;-65
2022/09/20 04:16:45;;;;;;;5.90;1.73;;;;;;;20.36;47.20;101999.34;4968104;28;20054;-65
2022/09/20 04:19:10;;;;;;;2.22;0.95;;;;;;;20.36;46.72;102004.78;4968998;28;20050;-65
2022/09/20 04:21:56;;;;;;;5.43;1.20;;;;;;;20.36;46.59;102004.78;4984575;28;20082;-65
2022/09/20 04:24:22;;;;;;;4.03;1.10;;;;;;;20.36;47.05;102002.06;4984665;28;20050;-65
2022/09/20 04:26:55;;;;;;;4.22;1.50;;;;;;;20.36;46.52;102006.63;4984558;28;20030;-65
2022/09/20 04:29:39;;;;;;;4.63;0.95;;;;;;;20.37;46.51;102005.63;4967403;28;20031;-65
2022/09/20 04:32:30;;;;;;;1.65;0.88;;;;;;;20.35;46.82;102004.97;4983234;28;20026;-65
2022/09/20 04:37:42;;;;;;;9.80;1.58;;;;;;;20.32;46.91;102011.59;4984751;28;20042;-65
2022/09/20 04:40:36;;;;;;;4.57;1.13;;;;;;;20.26;46.52;102013.09;4967789;28;20026;-65
2022/09/20 04:43:36;;;;;;;4.38;1.33;;;;;;;20.28;47.09;102016.50;4983662;28;20026;-65
2022/09/20 04:46:15;;;;;;;9.80;1.50;;;;;;;20.22;47.03;102017.09;4981851;28;20489;-65
2022/09/20 04:49:11;;;;;;;3.58;1.23;;;;;;;20.22;46.79;102028.00;4982615;28;20078;-65
2022/09/20 04:51:53;;;;;;;8.13;1.30;;;;;;;20.18;46.97;102020.31;4983119;28;20029;-65
2022/09/20 04:54:28;;;;;;;5.63;1.58;;;;;;;20.21;46.99;102014.56;4981868;28;20031;-65
2022/09/20 04:57:09;;;;;;;10.93;1.40;;;;;;;20.21;46.92;102020.84;4982223;28;20031;-65
2022/09/20 04:59:56;;;;;;;1.92;1.20;;;;;;;20.20;47.08;102016.44;4981299;28;20029;-65
2022/09/20 05:03:04;;;;;;;4.15;1.58;;;;;;;20.22;46.93;102021.69;4980246;28;20170;-65
2022/09/20 05:06:01;;;;;;;4.40;1.42;;;;;;;20.20;47.30;102018.28;4980913;28;20037;-65
2022/09/20 05:08:44;;;;;;;4.10;1.48;;;;;;;20.19;47.03;102022.88;4982367;28;20019;-65
2022/09/20 05:11:51;;;;;;;6.35;1.88;;;;;;;20.19;47.22;102022.88;4965021;28;20027;-65
2022/09/20 05:14:36;;;;;;;3.45;1.33;;;;;;;20.18;47.06;102021.16;4981319;28;20050;-65
2022/09/20 05:17:24;;;;;;;4.28;1.30;;;;;;;20.18;47.06;102031.22;4981785;28;20037;-65
2022/09/20 05:20:00;;;;;;;4.90;1.80;;;;;;;20.18;47.07;102031.22;4981895;28;20059;-65
2022/09/20 05:22:25;;;;;;;2.97;1.85;;;;;;;20.17;47.06;102024.91;4982168;28;20101;-65
2022/09/20 05:25:27;;;;;;;4.03;1.73;;;;;;;20.18;47.18;102021.16;4982322;28;20062;-65
2022/09/20 05:27:56;;;;;;;6.80;1.60;;;;;;;20.15;47.16;102026.94;4982341;28;20062;-65
2022/09/20 05:30:30;;;;;;;3.95;1.52;;;;;;;20.17;47.25;102041.22;4963514;28;20098;-65
2022/09/20 05:33:19;;;;;;;3.47;1.33;;;;;;;20.19;47.56;102039.19;4979301;28;20110;-65
2022/09/20 05:35:53;;;;;;;7.43;1.30;;;;;;;20.19;47.48;102050.06;4978598;28;20019;-65
2022/09/20 05:38:37;;;;;;;4.03;1.42;;;;;;;20.20;47.55;102045.50;4979409;28;20122;-65
2022/09/20 05:41:36;;;;;;;6.68;1.58;;;;;;;20.20;47.76;102051.78;4980119;28;20058;-65
2022/09/20 05:44:02;;;;;;;6.20;1.70;;;;;;;20.19;47.13;102055.53;4979184;28;20030;-65
2022/09/20 05:46:49;;;;;;;4.35;1.55;;;;;;;20.21;47.47;102061.66;4979258;28;20039;-63
2022/09/20 05:49:51;;;;;;;4.45;1.77;;;;;;;20.23;47.58;102062.38;4980957;28;20027;-63
2022/09/20 05:52:42;;;;;;;4.57;1.90;;;;;;;20.24;47.25;102058.63;4981851;28;20034;-63
2022/09/20 05:55:31;;;;;;;9.43;2.13;;;;;;;20.25;47.67;102065.78;4981832;28;20038;-63
2022/09/20 05:58:34;;;;;;;5.15;1.33;;;;;;;20.25;47.28;102059.50;4982168;28;20022;-63
2022/09/20 06:01:02;;;;;;;3.35;1.77;;;;;;;20.27;47.16;102052.88;4964480;28;20499;-63
2022/09/20 06:03:47;;;;;;;3.63;1.88;;;;;;;20.26;47.05;102044.88;4980589;28;20046;-64
2022/09/20 06:06:46;;;;;;;2.25;1.70;;;;;;;20.28;47.61;102040.97;4980368;28;20030;-63
2022/09/20 06:09:26;;;;;;;4.80;2.50;;;;;;;20.32;47.13;102045.06;4980633;28;20126;-64
2022/09/20 06:12:03;;;;;;;5.78;2.13;;;;;;;20.38;47.44;102045.47;4981730;28;20038;-63
2022/09/20 06:14:47;;;;;;;6.88;2.13;;;;;;;20.40;47.03;102036.09;4980837;28;20033;-63
2022/09/20 06:17:15;;;;;;;5.13;1.48;;;;;;;20.42;47.73;102041.38;4982151;28;20073;-65
2022/09/20 06:20:23;;;;;;;6.90;1.98;;;;;;;20.43;46.99;102045.81;4981307;28;20027;-65
2022/09/20 06:22:53;;;;;;;3.33;1.55;;;;;;;20.45;47.47;102043.78;4979548;28;20046;-65
2022/09/20 06:25:26;;;;;;;2.88;1.88;;;;;;;20.46;47.19;102049.06;4964289;28;20034;-65
2022/09/20 06:27:52;;;;;;;;;;;;;;;20.50;47.79;102049.56;4980908;28;20038;-65
2022/09/20 06:30:39;;;;;;;4.38;1.48;;;;;;;20.52;47.26;102053.00;4980308;28;19910;-65
2022/09/20 06:33:04;;;;;;;7.88;1.85;;;;;;;20.55;47.30;102052.66;4979926;28;20076;-65
2022/09/20 06:35:50;;;;;;;6.20;2.35;;;;;;;20.56;47.45;102057.09;4980190;28;20094;-65
2022/09/20 06:41:29;;;;;;;5.13;1.67;;;;;;;20.56;47.29;102063.41;4981241;28;20080;-65
2022/09/20 06:43:57;;;;;;;5.07;1.70;;;;;;;20.61;47.55;102071.06;4980252;28;20035;-65
2022/09/20 06:46:23;;;;;;;2.40;1.95;;;;;;;20.64;47.40;102071.59;4963354;28;20023;-65
2022/09/20 06:48:50;;;;;;;5.57;2.33;;;;;;;20.66;47.44;102069.56;4979218;28;20022;-65
2022/09/20 06:51:15;;;;;;;7.45;1.70;;;;;;;20.72;47.55;102079.78;4980145;28;20031;-65
2022/09/20 06:53:41;;;;;;;4.68;2.20;;;;;;;20.77;47.54;102071.97;4979561;28;20058;-65
2022/09/20 06:56:08;;;;;;;7.63;1.90;;;;;;;20.79;47.28;102075.41;4980645;28;20374;-65
2022/09/20 06:58:33;;;;;;;8.53;2.33;;;;;;;20.85;47.47;102074.72;4983528;28;20027;-65
2022/09/20 07:00:58;;;;;;;3.72;1.85;;;;;;;20.94;47.14;102077.50;4967267;28;20053;-65
2022/09/20 07:03:24;;;;;;;3.35;1.77;;;;;;;21.00;47.17;102082.25;4967207;28;20059;-65
2022/09/20 07:05:49;;;;;;;6.93;1.80;;;;;;;21.10;46.99;102075.69;4967160;28;20466;-65
2022/09/20 07:08:15;;;;;;;6.25;2.35;;;;;;;21.15;46.67;102070.59;4967260;28;20037;-65
2022/09/20 07:10:42;;;;;;;4.50;1.73;;;;;;;21.20;46.65;102079.09;4967552;28;20027;-65
2022/09/20 07:13:10;;;;;;;10.60;2.00;;;;;;;21.25;47.36;102078.59;4967567;28;20038;-65
2022/09/20 07:15:36;;;;;;;4.20;1.83;;;;;;;21.26;47.01;102075.72;4967755;28;20034;-65
2022/09/20 07:18:02;;;;;;;5.95;1.65;;;;;;;21.32;47.33;102087.81;4984067;28;20117;-65
2022/09/20 07:20:27;;;;;;;4.38;2.30;;;;;;;21.40;46.51;102080.50;4984536;28;20054;-65
2022/09/20 07:22:53;;;;;;;3.00;1.70;;;;;;;21.49;46.90;102084.09;4984558;28;20038;-65
2022/09/20 07:25:19;;;;;;;3.97;1.83;;;;;;;21.60;46.92;102080.16;4984988;28;20027;-65
2022/09/20 07:27:45;;;;;;;2.47;1.60;;;;;;;21.87;46.14;102077.97;4985006;28;20362;-65
2022/09/20 07:30:13;;;;;;;3.72;1.60;;;;;;;22.41;45.96;102070.88;4984338;28;20026;-65
2022/09/20 07:32:39;;;;;;;8.02;2.35;;;;;;;22.54;45.60;102076.59;4986455;28;20117;-65
2022/09/20 07:35:09;;;;;;;5.20;2.30;;;;;;;22.55;45.34;102078.31;4969442;28;20497;-65
2022/09/20 07:37:35;;;;;;;3.75;1.90;;;;;;;22.61;46.41;102077.59;4985796;28;20081;-65
2022/09/20 07:40:00;;;;;;;4.72;1.77;;;;;;;22.64;45.21;102086.50;4969537;28;20035;-65
2022/09/20 07:42:28;;;;;;;4.43;1.88;;;;;;;22.64;45.94;102081.06;4985385;28;20098;-65
2022/09/20 07:44:54;;;;;;;4.57;1.73;;;;;;;22.69;46.18;102090.41;4986014;28;20035;-65
2022/09/20 07:47:24;;;;;;;6.43;2.08;;;;;;;22.74;46.04;102092.59;4970332;28;20042;-65
2022/09/20 07:49:49;;;;;;;4.68;1.40;;;;;;;22.78;45.75;102089.31;4986409;28;20023;-65
2022/09/20 07:52:15;;;;;;;3.65;1.60;;;;;;;22.81;46.16;102094.44;4969621;28;20058;-65
2022/09/20 07:54:41;;;;;;;4.00;1.88;;;;;;;22.86;45.05;102100.25;4986470;28;20412;-65
2022/09/20 07:57:06;;;;;;;2.88;1.70;;;;;;;22.89;45.88;102105.31;4985763;28;20031;-65
2022/09/20 07:59:32;;;;;;;5.20;1.73;;;;;;;22.97;45.53;102104.47;4987061;28;20031;-65
2022/09/20 08:01:59;;;;;;;2.92;1.30;;;;;;;23.01;45.00;102105.78;4986746;28;20123;-65
2022/09/20 08:04:25;;;;;;;2.15;1.25;;;;;;;23.04;44.77;102105.44;4985996;28;20026;-65
2022/09/20 08:06:50;;;;;;;2.85;1.58;;;;;;;23.08;45.01;102112.25;4985365;28;20027;-65
2022/09/20 08:09:16;;;;;;;6.95;1.83;;;;;;;23.06;44.88;102120.63;4985465;28;20019;-65
2022/09/20 08:11:42;;;;;;;2.97;0.90;;;;;;;23.04;44.62;102110.91;4969573;28;20039;-65
2022/09/20 08:14:13;;;;;;;7.28;1.70;;;;;;;23.00;44.90;102112.31;4985371;28;20031;-65
2022/09/20 08:16:41;;;;;;;2.10;1.05;;;;;;;23.02;45.23;102121.16;4985389;28;20061;-65
2022/09/20 08:19:07;;;;;;;4.18;1.67;;;;;;;22.99;45.49;102108.72;4985031;28;20102;-65
2022/09/20 08:21:36;;;;;;;3.47;1.40;;;;;;;23.03;44.57;102120.16;4984867;28;20061;-65
2022/09/20 08:24:02;;;;;;;4.05;1.77;;;;;;;23.06;44.99;102114.31;4984305;28;20162;-65
2022/09/20 08:26:29;;;;;;;5.85;1.50;;;;;;;23.11;45.27;102125.56;4983377;28;20097;-65
2022/09/20 08:28:57;;;;;;;4.72;1.25;;;;;;;23.13;44.93;102121.63;4967619;28;20015;-66
2022/09/20 08:31:25;;;;;;;1.58;0.90;;;;;;;23.16;44.93;102124.00;4967210;28;20180;-65
2022/09/20 08:33:51;;;;;;;6.15;1.30;;;;;;;23.15;45.16;102121.44;4982921;28;20033;-65
2022/09/20 08:36:19;;;;;;;2.25;1.13;;;;;;;23.19;44.56;102120.06;4966995;28;20033;-65
2022/09/20 08:38:45;;;;;;;4.80;1.40;;;;;;;23.21;44.53;102128.91;4982704;28;20029;-65
2022/09/20 08:41:14;;;;;;;2.90;0.93;;;;;;;23.26;45.17;102129.22;4983351;28;20117;-65
2022/09/20 08:43:47;;;;;;;1.50;1.10;;;;;;;23.27;44.06;102119.13;4966442;28;20496;-65
2022/09/20 08:46:15;;;;;;;9.25;1.35;;;;;;;23.30;44.11;102122.38;4982222;28;20033;-65
2022/09/20 08:48:40;;;;;;;4.63;1.48;;;;;;;23.29;43.96;102115.19;4982106;28;20053;-65
2022/09/20 08:51:09;;;;;;;3.80;1.30;;;;;;;23.27;44.20;102121.88;4982044;28;20026;-65
2022/09/20 08:53:35;;;;;;;3.30;1.38;;;;;;;23.24;44.67;102117.63;4981730;28;20027;-65
2022/09/20 08:56:03;;;;;;;6.72;1.20;;;;;;;23.24;44.46;102117.63;4983094;28;20030;-65
2022/09/20 08:58:28;;;;;;;4.88;1.35;;;;;;;23.29;44.12;102125.28;4949967;28;20516;-65
2022/09/20 09:00:57;;;;;;;3.72;1.33;;;;;;;23.32;43.73;102119.44;4965623;28;20039;-65
2022/09/20 09:03:24;;;;;;;4.97;1.60;;;;;;;23.43;44.43;102128.13;4981317;28;20047;-65
2022/09/20 09:05:53;;;;;;;3.35;1.20;;;;;;;23.56;44.34;102122.88;4964767;28;20103;-65
2022/09/20 09:08:32;;;;;;;4.65;1.48;;;;;;;23.67;43.46;102124.38;4964483;28;20484;-65
2022/09/20 09:11:07;;;;;;;1.65;0.90;;;;;;;23.77;43.42;102130.44;4963917;28;20030;-65
2022/09/20 09:13:47;;;;;;;0.85;0.80;;;;;;;23.92;43.16;102125.00;4981146;28;20077;-65
2022/09/20 09:16:15;;;;;;;8.45;1.48;;;;;;;24.05;43.71;102127.97;4963054;28;20033;-66
2022/09/20 09:18:42;;;;;;;4.18;0.98;;;;;;;24.13;42.76;102126.03;4978337;28;20053;-65
2022/09/20 09:21:11;;;;;;;3.53;2.08;;;;;;;24.20;43.41;102126.16;4962572;28;20076;-65
2022/09/20 09:23:42;;;;;;;3.97;1.10;;;;;;;24.22;43.33;102121.31;4978817;28;20396;-65
2022/09/20 09:26:17;;;;;;;1.65;0.80;;;;;;;24.27;42.98;102116.13;4979815;28;20026;-65
2022/09/20 09:28:42;;;;;;;7.93;1.13;;;;;;;24.30;42.58;102122.09;4962164;28;20027;-65
2022/09/20 09:31:24;;;;;;;3.88;1.17;;;;;;;24.42;42.75;102117.00;4945902;28;20030;-65
2022/09/20 09:33:50;;;;;;;3.13;0.98;;;;;;;24.67;42.18;102123.06;4978005;28;20027;-66
2022/09/20 09:36:21;;;;;;;6.72;1.35;;;;;;;24.78;42.22;102112.47;4977955;28;20027;-66
2022/09/20 09:38:46;;;;;;;4.28;0.80;;;;;;;25.17;41.67;102111.28;4977905;28;20031;-65
2022/09/20 09:41:32;;;;;;;2.45;0.90;;;;;;;25.83;40.68;102110.94;4977932;28;20035;-66
2022/09/20 09:44:08;;;;;;;7.30;0.70;;;;;;;25.67;40.29;102115.84;4977697;28;20392;-66
2022/09/20 09:46:36;;;;;;;0.80;0.52;;;;;;;25.62;41.19;102119.19;4961944;28;20026;-66
2022/09/20 09:49:14;;;;;;;7.63;0.65;;;;;;;25.62;41.11;102116.44;4962262;28;20034;-66
2022/09/20 09:51:43;;;;;;;5.22;0.60;;;;;;;26.70;39.33;102108.59;4978938;28;20030;-66
2022/09/20 09:54:16;;;;;;;4.40;0.65;;;;;;;27.78;38.05;102110.47;4962487;28;20027;-66
2022/09/20 09:56:50;;;;;;;;;;;;;;;28.65;37.62;102120.16;4977344;28;20080;-66
2022/09/20 09:59:46;;;;;;;1.00;0.45;;;;;;;29.49;37.53;102113.63;4977813;28;19965;-66
2022/09/20 10:02:49;;;;;;;0.82;0.47;;;;;;;30.30;36.32;102107.03;4975757;28;20085;-71
2022/09/20 10:05:22;;;;;;;2.17;0.95;;;;;;;31.16;35.63;102095.84;4973245;28;20030;-71
2022/09/20 10:08:09;;;;;;;1.40;0.30;;;;;;;31.62;35.35;102087.72;4974509;28;20027;-72
2022/09/20 10:11:03;;;;;;;3.58;0.80;;;;;;;31.33;34.97;102102.41;4973186;28;20214;-73
2022/09/20 10:13:34;;;;;;;0.43;0.22;;;;;;;32.12;34.13;102101.19;4974433;28;20062;-72
2022/09/20 10:16:17;;;;;;;5.55;0.40;;;;;;;33.06;32.56;102095.28;4974428;28;20396;-72
2022/09/20 10:19:11;;;;;;;4.05;0.47;;;;;;;33.64;32.64;102097.78;4973036;28;20034;-73
2022/09/20 10:21:47;;;;;;;1.73;0.40;;;;;;;33.42;33.03;102101.53;4973133;28;20061;-72
2022/09/20 10:24:31;;;;;;;2.22;0.40;;;;;;;33.09;33.08;102091.16;4957172;28;20034;-73
2022/09/20 10:27:31;;;;;;;2.53;0.40;;;;;;;33.54;32.26;102089.25;4956963;28;20135;-72
2022/09/20 10:30:16;;;;;;;5.88;1.45;;;;;;;33.61;31.80;102095.53;4974207;28;20053;-73
2022/09/20 10:32:58;;;;;;;1.88;0.30;;;;;;;33.97;31.12;102100.59;4977089;28;20069;-73
2022/09/20 10:35:23;;;;;;;;;;;;;;;32.93;33.08;102086.38;4961277;28;20030;-72
2022/09/20 10:37:49;;;;;;;1.30;0.33;;;;;;;32.25;32.75;102089.84;4978102;28;19910;-73
2022/09/20 10:40:14;;;;;;;2.28;0.38;;;;;;;32.26;31.90;102100.72;4976767;28;20284;-72
2022/09/20 10:45:40;;;;;;;9.13;0.65;;;;;;;32.09;31.46;102090.56;4977900;28;20097;-71
2022/09/20 10:48:23;;;;;;;2.00;0.73;;;;;;;31.59;31.55;102096.50;4976789;28;20077;-71
2022/09/20 10:50:57;;;;;;;2.58;0.45;;;;;;;31.99;31.71;102095.84;4976772;28;20019;-73
2022/09/20 10:53:45;;;;;;;1.05;0.70;;;;;;;31.71;31.20;102083.50;4976711;28;20081;-73
2022/09/20 10:56:19;;;;;;;5.63;0.50;;;;;;;32.08;30.30;102083.31;4977858;28;20027;-72
2022/09/20 10:58:51;;;;;;;2.30;0.20;;;;;;;32.53;30.05;102086.31;4977758;28;20436;-72
2022/09/20 11:01:30;;;;;;;2.72;0.40;;;;;;;33.21;29.96;102083.63;4977603;28;20053;-72
2022/09/20 11:04:19;;;;;;;4.35;0.35;;;;;;;33.86;29.02;102082.06;4976777;28;20055;-72
2022/09/20 11:06:54;;;;;;;4.95;0.77;;;;;;;34.49;27.88;102091.94;4976294;28;20035;-73
2022/09/20 11:09:24;;;;;;;3.00;0.30;;;;;;;35.02;27.54;102075.38;4960243;28;20026;-72
2022/09/20 11:11:54;;;;;;;2.53;0.70;;;;;;;34.41;28.15;102087.66;4976396;28;20504;-72
2022/09/20 11:14:28;;;;;;;2.00;0.45;;;;;;;33.79;28.67;102086.94;4976314;28;20039;-71
2022/09/20 11:16:54;;;;;;;0.95;0.35;;;;;;;33.00;29.40;102095.41;4976299;28;20412;-73
2022/09/20 11:19:27;;;;;;;1.20;0.30;;;;;;;32.20;29.88;102098.91;4977360;28;20144;-73
2022/09/20 11:22:05;;;;;;;0.55;0.20;;;;;;;31.44;30.28;102090.53;4959980;28;20034;-72
2022/09/20 11:24:42;;;;;;;0.28;0.10;;;;;;;30.80;30.19;102098.63;4976157;28;20027;-72
2022/09/20 11:27:19;;;;;;;1.65;0.38;;;;;;;30.17;30.80;102104.41;4976025;28;20031;-72
2022/09/20 11:29:55;;;;;;;5.80;0.80;;;;;;;29.57;30.54;102099.56;4976101;28;20640;-71
2022/09/20 11:32:35;;;;;;;4.47;0.20;;;;;;;29.06;30.74;102103.25;4959758;28;20440;-72
2022/09/20 11:35:28;;;;;;;3.40;0.38;;;;;;;28.54;31.60;102114.44;4977155;28;20082;-72
2022/09/20 11:38:27;;;;;;;1.20;0.20;;;;;;;28.09;32.37;102121.72;4969852;28;20437;-71
2022/09/20 11:41:01;;;;;;;3.45;0.13;;;;;;;27.68;31.65;102119.13;4975712;28;20027;-70
2022/09/20 11:43:29;;;;;;;3.63;0.45;;;;;;;27.38;32.27;102118.66;4975692;28;20027;-69
2022/09/20 11:45:57;;;;;;;3.05;0.65;;;;;;;27.12;32.27;102119.41;4975747;28;20038;-70
2022/09/20 11:48:29;;;;;;;0.45;0.10;;;;;;;26.86;32.52;102130.28;4959908;28;20117;-69
2022/09/20 11:51:28;;;;;;;0.73;0.10;;;;;;;26.66;32.98;102134.81;4976909;28;20448;-69
2022/09/20 11:54:03;;;;;;;1.55;0.20;;;;;;;26.45;33.19;102133.00;4975568;28;20074;-69
2022/09/20 11:56:29;;;;;;;5.53;0.98;;;;;;;26.30;32.80;102139.66;4976827;28;20554;-70
2022/09/20 11:58:58;;;;;;;2.25;0.57;;;;;;;26.19;33.32;102131.94;4959545;28;20022;-70
2022/09/20 12:01:38;;;;;;;3.90;0.35;;;;;;;26.08;33.50;102137.94;4976595;28;20031;-70
2022/09/20 12:04:10;;;;;;;3.00;0.57;;;;;;;25.98;33.24;102141.06;4975438;28;20035;-70
2022/09/20 12:06:37;;;;;;;2.13;0.40;;;;;;;25.89;33.44;102137.59;4975417;28;20031;-71
2022/09/20 12:09:14;;;;;;;0.90;0.40;;;;;;;25.83;33.93;102135.63;4975410;28;20027;-69
2022/09/20 12:11:42;;;;;;;5.20;0.52;;;;;;;25.83;33.81;102135.63;4975380;28;20125;-70
2022/09/20 12:14:18;;;;;;;4.25;0.52;;;;;;;25.80;33.96;102135.16;4976457;28;20158;-69
2022/09/20 12:16:45;;;;;;;5.03;0.43;;;;;;;25.69;33.85;102136.56;4975243;28;20469;-70
2022/09/20 12:19:20;;;;;;;2.63;0.93;;;;;;;25.61;34.45;102144.06;4975192;28;20022;-69